sensor_id;sensor_type;location;lat;lon;timestamp;temperature;humidity
18160;DHT22;9205;52.032;4.314;2023-07-13T00:01:59;18.30;1.00
18160;DHT22;9205;52.032;4.314;2023-07-13T00:04:27;18.30;1.00
18160;DHT22;9205;52.032;4.314;2023-07-13T00:06:54;18.30;1.00
18160;DHT22;9205;52.032;4.314;2023-07-13T00:09:22;18.30;1.00
18160;DHT22;9205;52.032;4.314;2023-07-13T00:11:52;18.30;1.00
18160;DHT22;9205;52.032;4.314;2023-07-13T00:14:24;18.30;1.00
18160;DHT22;9205;52.032;4.314;2023-07-13T00:16:52;18.30;1.00
18160;DHT22;9205;52.032;4.314;2023-07-13T00:19:19;18.30;1.00
18160;DHT22;9205;52.032;4.314;2023-07-13T00:21:47;18.30;1.00
18160;DHT22;9205;52.032;4.314;2023-07-13T00:24:18;18.30;1.00
18160;DHT22;9205;52.032;4.314;2023-07-13T00:26:49;18.30;1.00
18160;DHT22;9205;52.032;4.314;2023-07-13T00:29:16;18.30;1.00
18160;DHT22;9205;52.032;4.314;2023-07-13T00:31:45;18.30;1.00
18160;DHT22;9205;52.032;4.314;2023-07-13T00:34:12;18.20;1.00
18160;DHT22;9205;52.032;4.314;2023-07-13T00:36:40;18.20;1.00
18160;DHT22;9205;52.032;4.314;2023-07-13T00:39:07;18.10;1.00
18160;DHT22;9205;52.032;4.314;2023-07-13T00:41:34;18.10;1.00
18160;DHT22;9205;52.032;4.314;2023-07-13T00:44:03;18.10;1.00
18160;DHT22;9205;52.032;4.314;2023-07-13T00:46:33;18.20;1.00
18160;DHT22;9205;52.032;4.314;2023-07-13T00:49:05;18.10;1.00
18160;DHT22;9205;52.032;4.314;2023-07-13T00:51:43;18.10;1.00
18160;DHT22;9205;52.032;4.314;2023-07-13T00:54:17;18.00;1.00
18160;DHT22;9205;52.032;4.314;2023-07-13T00:56:49;18.00;1.00
18160;DHT22;9205;52.032;4.314;2023-07-13T00:59:20;18.00;1.00
18160;DHT22;9205;52.032;4.314;2023-07-13T01:01:48;18.00;1.00
18160;DHT22;9205;52.032;4.314;2023-07-13T01:04:18;18.00;1.00
18160;DHT22;9205;52.032;4.314;2023-07-13T01:06:46;17.90;1.00
18160;DHT22;9205;52.032;4.314;2023-07-13T01:09:14;17.90;1.00
18160;DHT22;9205;52.032;4.314;2023-07-13T01:11:43;17.90;1.00
18160;DHT22;9205;52.032;4.314;2023-07-13T01:14:11;17.80;1.00
18160;DHT22;9205;52.032;4.314;2023-07-13T01:16:41;17.80;1.00
18160;DHT22;9205;52.032;4.314;2023-07-13T01:19:24;17.80;1.00
18160;DHT22;9205;52.032;4.314;2023-07-13T01:22:04;17.80;1.00
18160;DHT22;9205;52.032;4.314;2023-07-13T01:24:34;17.70;1.00
18160;DHT22;9205;52.032;4.314;2023-07-13T01:27:03;17.70;1.00
18160;DHT22;9205;52.032;4.314;2023-07-13T01:29:32;17.60;1.00
18160;DHT22;9205;52.032;4.314;2023-07-13T01:32:00;17.60;1.00
18160;DHT22;9205;52.032;4.314;2023-07-13T01:34:27;17.60;1.00
18160;DHT22;9205;52.032;4.314;2023-07-13T01:36:55;17.60;1.00
18160;DHT22;9205;52.032;4.314;2023-07-13T01:39:23;17.60;1.00
18160;DHT22;9205;52.032;4.314;2023-07-13T01:41:51;17.60;1.00
18160;DHT22;9205;52.032;4.314;2023-07-13T01:44:19;17.50;1.00
18160;DHT22;9205;52.032;4.314;2023-07-13T01:46:47;17.50;1.00
18160;DHT22;9205;52.032;4.314;2023-07-13T01:49:14;17.50;1.00
18160;DHT22;9205;52.032;4.314;2023-07-13T01:51:42;17.50;1.00
18160;DHT22;9205;52.032;4.314;2023-07-13T01:54:10;17.50;1.00
18160;DHT22;9205;52.032;4.314;2023-07-13T01:56:39;17.50;1.00
18160;DHT22;9205;52.032;4.314;2023-07-13T01:59:07;17.60;1.00
18160;DHT22;9205;52.032;4.314;2023-07-13T02:01:35;17.50;1.00
18160;DHT22;9205;52.032;4.314;2023-07-13T02:04:02;17.50;1.00
18160;DHT22;9205;52.032;4.314;2023-07-13T02:06:32;17.50;1.00
18160;DHT22;9205;52.032;4.314;2023-07-13T02:09:00;17.50;1.00
18160;DHT22;9205;52.032;4.314;2023-07-13T02:11:27;17.50;1.00
18160;DHT22;9205;52.032;4.314;2023-07-13T02:13:59;17.60;1.00
18160;DHT22;9205;52.032;4.314;2023-07-13T02:16:27;17.50;1.00
18160;DHT22;9205;52.032;4.314;2023-07-13T02:18:55;17.50;1.00
18160;DHT22;9205;52.032;4.314;2023-07-13T02:21:23;17.50;1.00
18160;DHT22;9205;52.032;4.314;2023-07-13T02:23:51;17.50;1.00
18160;DHT22;9205;52.032;4.314;2023-07-13T02:26:19;17.50;1.00
18160;DHT22;9205;52.032;4.314;2023-07-13T02:28:47;17.50;1.00
18160;DHT22;9205;52.032;4.314;2023-07-13T02:31:16;17.60;1.00
18160;DHT22;9205;52.032;4.314;2023-07-13T02:33:43;17.50;1.00
18160;DHT22;9205;52.032;4.314;2023-07-13T02:36:11;17.50;1.00
18160;DHT22;9205;52.032;4.314;2023-07-13T02:38:43;17.50;1.00
18160;DHT22;9205;52.032;4.314;2023-07-13T02:41:11;17.50;1.00
18160;DHT22;9205;52.032;4.314;2023-07-13T02:43:39;17.60;1.00
18160;DHT22;9205;52.032;4.314;2023-07-13T02:46:08;17.60;1.00
18160;DHT22;9205;52.032;4.314;2023-07-13T02:48:38;17.60;1.00
18160;DHT22;9205;52.032;4.314;2023-07-13T02:51:06;17.60;1.00
18160;DHT22;9205;52.032;4.314;2023-07-13T02:53:34;17.60;1.00
18160;DHT22;9205;52.032;4.314;2023-07-13T02:56:02;17.60;1.00
18160;DHT22;9205;52.032;4.314;2023-07-13T02:58:30;17.60;1.00
18160;DHT22;9205;52.032;4.314;2023-07-13T03:00:57;17.60;1.00
18160;DHT22;9205;52.032;4.314;2023-07-13T03:03:26;17.70;1.00
18160;DHT22;9205;52.032;4.314;2023-07-13T03:06:00;17.70;1.00
18160;DHT22;9205;52.032;4.314;2023-07-13T03:08:36;17.60;1.00
18160;DHT22;9205;52.032;4.314;2023-07-13T03:11:06;17.60;1.00
18160;DHT22;9205;52.032;4.314;2023-07-13T03:13:40;17.70;1.00
18160;DHT22;9205;52.032;4.314;2023-07-13T03:16:09;17.60;1.00
18160;DHT22;9205;52.032;4.314;2023-07-13T03:18:38;17.60;1.00
18160;DHT22;9205;52.032;4.314;2023-07-13T03:21:09;17.70;4.70
18160;DHT22;9205;52.032;4.314;2023-07-13T03:23:38;17.70;10.30
18160;DHT22;9205;52.032;4.314;2023-07-13T03:26:07;17.70;14.10
18160;DHT22;9205;52.032;4.314;2023-07-13T03:28:39;17.60;28.50
18160;DHT22;9205;52.032;4.314;2023-07-13T03:31:10;17.70;29.00
18160;DHT22;9205;52.032;4.314;2023-07-13T03:33:40;17.70;34.50
18160;DHT22;9205;52.032;4.314;2023-07-13T03:36:12;17.60;32.30
18160;DHT22;9205;52.032;4.314;2023-07-13T03:38:45;17.70;33.30
18160;DHT22;9205;52.032;4.314;2023-07-13T03:41:14;17.70;33.20
18160;DHT22;9205;52.032;4.314;2023-07-13T03:43:42;17.70;36.70
18160;DHT22;9205;52.032;4.314;2023-07-13T03:46:11;17.70;36.60
18160;DHT22;9205;52.032;4.314;2023-07-13T03:48:38;17.60;37.10
18160;DHT22;9205;52.032;4.314;2023-07-13T03:51:10;17.60;45.10
18160;DHT22;9205;52.032;4.314;2023-07-13T03:53:40;17.70;44.60
18160;DHT22;9205;52.032;4.314;2023-07-13T03:56:11;17.70;46.10
18160;DHT22;9205;52.032;4.314;2023-07-13T03:58:42;17.60;44.80
18160;DHT22;9205;52.032;4.314;2023-07-13T04:01:17;17.70;41.10
18160;DHT22;9205;52.032;4.314;2023-07-13T04:03:45;17.70;32.60
18160;DHT22;9205;52.032;4.314;2023-07-13T04:06:16;17.70;32.10
18160;DHT22;9205;52.032;4.314;2023-07-13T04:08:48;17.70;29.30
18160;DHT22;9205;52.032;4.314;2023-07-13T04:11:17;17.70;25.00
18160;DHT22;9205;52.032;4.314;2023-07-13T04:13:45;17.70;19.50
18160;DHT22;9205;52.032;4.314;2023-07-13T04:16:13;17.70;14.00
18160;DHT22;9205;52.032;4.314;2023-07-13T04:18:40;17.80;6.50
18160;DHT22;9205;52.032;4.314;2023-07-13T04:21:08;17.80;1.00
18160;DHT22;9205;52.032;4.314;2023-07-13T04:23:38;17.80;1.00
18160;DHT22;9205;52.032;4.314;2023-07-13T04:26:06;17.80;1.00
18160;DHT22;9205;52.032;4.314;2023-07-13T04:28:34;17.90;1.00
18160;DHT22;9205;52.032;4.314;2023-07-13T04:31:01;17.90;1.00
18160;DHT22;9205;52.032;4.314;2023-07-13T04:33:29;17.90;1.00
18160;DHT22;9205;52.032;4.314;2023-07-13T04:35:56;17.90;1.00
18160;DHT22;9205;52.032;4.314;2023-07-13T04:38:26;17.90;1.00
18160;DHT22;9205;52.032;4.314;2023-07-13T04:40:58;17.90;1.00
18160;DHT22;9205;52.032;4.314;2023-07-13T04:43:27;17.90;1.00
18160;DHT22;9205;52.032;4.314;2023-07-13T04:45:55;17.90;1.00
18160;DHT22;9205;52.032;4.314;2023-07-13T04:48:23;18.00;1.00
18160;DHT22;9205;52.032;4.314;2023-07-13T04:50:55;18.00;1.00
18160;DHT22;9205;52.032;4.314;2023-07-13T04:53:23;18.00;1.00
18160;DHT22;9205;52.032;4.314;2023-07-13T04:55:50;18.00;1.00
18160;DHT22;9205;52.032;4.314;2023-07-13T04:58:19;18.00;1.00
18160;DHT22;9205;52.032;4.314;2023-07-13T05:00:47;18.00;1.00
18160;DHT22;9205;52.032;4.314;2023-07-13T05:03:14;18.00;1.00
18160;DHT22;9205;52.032;4.314;2023-07-13T05:05:41;18.10;1.00
18160;DHT22;9205;52.032;4.314;2023-07-13T05:08:09;18.10;1.00
18160;DHT22;9205;52.032;4.314;2023-07-13T05:10:36;18.10;1.00
18160;DHT22;9205;52.032;4.314;2023-07-13T05:13:03;18.20;1.00
18160;DHT22;9205;52.032;4.314;2023-07-13T05:15:33;18.20;1.00
18160;DHT22;9205;52.032;4.314;2023-07-13T05:18:00;18.20;1.00
18160;DHT22;9205;52.032;4.314;2023-07-13T05:20:27;18.20;1.00
18160;DHT22;9205;52.032;4.314;2023-07-13T05:22:54;18.20;1.00
18160;DHT22;9205;52.032;4.314;2023-07-13T05:25:22;18.20;1.00
18160;DHT22;9205;52.032;4.314;2023-07-13T05:27:49;18.20;1.00
18160;DHT22;9205;52.032;4.314;2023-07-13T05:30:16;18.20;1.00
18160;DHT22;9205;52.032;4.314;2023-07-13T05:32:45;18.20;1.00
18160;DHT22;9205;52.032;4.314;2023-07-13T05:35:12;18.30;1.00
18160;DHT22;9205;52.032;4.314;2023-07-13T05:37:39;18.30;1.00
18160;DHT22;9205;52.032;4.314;2023-07-13T05:40:07;18.20;1.00
18160;DHT22;9205;52.032;4.314;2023-07-13T05:42:35;18.30;1.00
18160;DHT22;9205;52.032;4.314;2023-07-13T05:45:02;18.40;1.00
18160;DHT22;9205;52.032;4.314;2023-07-13T05:47:30;18.40;1.00
18160;DHT22;9205;52.032;4.314;2023-07-13T05:49:59;18.40;1.00
18160;DHT22;9205;52.032;4.314;2023-07-13T05:52:26;18.50;1.00
18160;DHT22;9205;52.032;4.314;2023-07-13T05:54:54;18.40;1.00
18160;DHT22;9205;52.032;4.314;2023-07-13T05:57:21;18.40;1.00
18160;DHT22;9205;52.032;4.314;2023-07-13T05:59:48;18.50;1.00
18160;DHT22;9205;52.032;4.314;2023-07-13T06:02:15;18.40;1.00
18160;DHT22;9205;52.032;4.314;2023-07-13T06:04:43;18.40;1.00
18160;DHT22;9205;52.032;4.314;2023-07-13T06:07:11;18.30;1.00
18160;DHT22;9205;52.032;4.314;2023-07-13T06:09:38;18.30;1.00
18160;DHT22;9205;52.032;4.314;2023-07-13T06:12:07;18.30;1.00
18160;DHT22;9205;52.032;4.314;2023-07-13T06:14:35;18.30;1.00
18160;DHT22;9205;52.032;4.314;2023-07-13T06:17:02;18.30;1.00
18160;DHT22;9205;52.032;4.314;2023-07-13T06:19:29;18.40;1.00
18160;DHT22;9205;52.032;4.314;2023-07-13T06:21:56;18.50;1.00
18160;DHT22;9205;52.032;4.314;2023-07-13T06:24:26;18.60;1.00
18160;DHT22;9205;52.032;4.314;2023-07-13T06:26:54;18.60;1.00
18160;DHT22;9205;52.032;4.314;2023-07-13T06:29:21;18.70;1.00
18160;DHT22;9205;52.032;4.314;2023-07-13T06:31:48;18.70;1.00
18160;DHT22;9205;52.032;4.314;2023-07-13T06:34:15;18.70;1.00
18160;DHT22;9205;52.032;4.314;2023-07-13T06:36:43;18.70;1.00
18160;DHT22;9205;52.032;4.314;2023-07-13T06:39:11;18.60;1.00
18160;DHT22;9205;52.032;4.314;2023-07-13T06:41:39;18.70;1.00
18160;DHT22;9205;52.032;4.314;2023-07-13T06:44:10;18.60;1.00
18160;DHT22;9205;52.032;4.314;2023-07-13T06:46:37;18.70;1.00
18160;DHT22;9205;52.032;4.314;2023-07-13T06:49:04;18.80;1.00
18160;DHT22;9205;52.032;4.314;2023-07-13T06:51:32;18.90;1.00
18160;DHT22;9205;52.032;4.314;2023-07-13T06:53:59;18.90;1.00
18160;DHT22;9205;52.032;4.314;2023-07-13T06:56:26;18.90;1.00
18160;DHT22;9205;52.032;4.314;2023-07-13T06:58:55;19.00;1.00
18160;DHT22;9205;52.032;4.314;2023-07-13T07:01:22;19.00;1.00
18160;DHT22;9205;52.032;4.314;2023-07-13T07:03:49;19.00;1.00
18160;DHT22;9205;52.032;4.314;2023-07-13T07:06:18;18.90;1.00
18160;DHT22;9205;52.032;4.314;2023-07-13T07:08:49;18.80;1.00
18160;DHT22;9205;52.032;4.314;2023-07-13T07:11:19;18.80;1.00
18160;DHT22;9205;52.032;4.314;2023-07-13T07:13:48;18.90;1.00
18160;DHT22;9205;52.032;4.314;2023-07-13T07:16:18;19.00;1.00
18160;DHT22;9205;52.032;4.314;2023-07-13T07:18:46;19.10;1.00
18160;DHT22;9205;52.032;4.314;2023-07-13T07:21:14;19.10;1.00
18160;DHT22;9205;52.032;4.314;2023-07-13T07:23:42;19.20;1.00
18160;DHT22;9205;52.032;4.314;2023-07-13T07:26:09;19.30;1.00
18160;DHT22;9205;52.032;4.314;2023-07-13T07:28:37;19.30;1.00
18160;DHT22;9205;52.032;4.314;2023-07-13T07:31:04;19.30;1.00
18160;DHT22;9205;52.032;4.314;2023-07-13T07:33:33;19.20;1.00
18160;DHT22;9205;52.032;4.314;2023-07-13T07:36:01;19.20;1.00
18160;DHT22;9205;52.032;4.314;2023-07-13T07:38:29;19.20;1.00
18160;DHT22;9205;52.032;4.314;2023-07-13T07:40:56;19.30;1.00
18160;DHT22;9205;52.032;4.314;2023-07-13T07:43:23;19.30;1.00
18160;DHT22;9205;52.032;4.314;2023-07-13T07:45:51;19.20;1.00
18160;DHT22;9205;52.032;4.314;2023-07-13T07:48:18;19.20;99.90
18160;DHT22;9205;52.032;4.314;2023-07-13T07:50:46;19.30;99.90
18160;DHT22;9205;52.032;4.314;2023-07-13T07:53:14;19.50;99.90
18160;DHT22;9205;52.032;4.314;2023-07-13T07:55:41;19.40;99.90
18160;DHT22;9205;52.032;4.314;2023-07-13T07:58:10;19.50;99.90
18160;DHT22;9205;52.032;4.314;2023-07-13T08:00:37;19.40;99.90
18160;DHT22;9205;52.032;4.314;2023-07-13T08:03:06;19.30;99.90
18160;DHT22;9205;52.032;4.314;2023-07-13T08:05:35;19.20;99.90
18160;DHT22;9205;52.032;4.314;2023-07-13T08:08:04;19.40;1.00
18160;DHT22;9205;52.032;4.314;2023-07-13T08:10:32;19.30;99.90
18160;DHT22;9205;52.032;4.314;2023-07-13T08:13:02;19.20;99.90
18160;DHT22;9205;52.032;4.314;2023-07-13T08:15:29;19.30;99.90
18160;DHT22;9205;52.032;4.314;2023-07-13T08:17:57;19.40;99.90
18160;DHT22;9205;52.032;4.314;2023-07-13T08:20:24;19.40;99.90
18160;DHT22;9205;52.032;4.314;2023-07-13T08:22:51;19.30;99.90
18160;DHT22;9205;52.032;4.314;2023-07-13T08:25:20;19.20;99.90
18160;DHT22;9205;52.032;4.314;2023-07-13T08:27:48;19.20;99.90
18160;DHT22;9205;52.032;4.314;2023-07-13T08:30:15;19.10;99.90
18160;DHT22;9205;52.032;4.314;2023-07-13T08:32:42;19.10;99.90
18160;DHT22;9205;52.032;4.314;2023-07-13T08:35:10;19.20;99.90
18160;DHT22;9205;52.032;4.314;2023-07-13T08:37:39;19.40;1.00
18160;DHT22;9205;52.032;4.314;2023-07-13T08:40:08;19.50;1.00
18160;DHT22;9205;52.032;4.314;2023-07-13T08:42:42;19.40;99.90
18160;DHT22;9205;52.032;4.314;2023-07-13T08:45:19;19.50;99.90
18160;DHT22;9205;52.032;4.314;2023-07-13T08:47:53;19.50;99.90
18160;DHT22;9205;52.032;4.314;2023-07-13T08:50:27;19.60;99.90
18160;DHT22;9205;52.032;4.314;2023-07-13T08:52:58;19.50;99.90
18160;DHT22;9205;52.032;4.314;2023-07-13T08:55:30;19.50;99.90
18160;DHT22;9205;52.032;4.314;2023-07-13T08:58:06;19.60;99.90
18160;DHT22;9205;52.032;4.314;2023-07-13T09:00:44;19.70;99.90
18160;DHT22;9205;52.032;4.314;2023-07-13T09:03:23;19.60;99.90
18160;DHT22;9205;52.032;4.314;2023-07-13T09:05:55;19.50;99.90
18160;DHT22;9205;52.032;4.314;2023-07-13T09:08:38;19.50;99.90
18160;DHT22;9205;52.032;4.314;2023-07-13T09:14:32;19.80;99.90
18160;DHT22;9205;52.032;4.314;2023-07-13T09:17:10;19.90;99.90
18160;DHT22;9205;52.032;4.314;2023-07-13T09:19:41;20.00;99.90
18160;DHT22;9205;52.032;4.314;2023-07-13T09:22:13;20.00;99.90
18160;DHT22;9205;52.032;4.314;2023-07-13T09:24:52;19.90;1.00
18160;DHT22;9205;52.032;4.314;2023-07-13T09:27:29;19.80;29.70
18160;DHT22;9205;52.032;4.314;2023-07-13T09:30:19;19.90;44.80
18160;DHT22;9205;52.032;4.314;2023-07-13T09:32:52;19.90;99.90
18160;DHT22;9205;52.032;4.314;2023-07-13T09:35:24;19.70;99.90
18160;DHT22;9205;52.032;4.314;2023-07-13T09:37:58;19.70;99.90
18160;DHT22;9205;52.032;4.314;2023-07-13T09:40:39;19.70;99.90
18160;DHT22;9205;52.032;4.314;2023-07-13T09:43:15;19.90;99.90
18160;DHT22;9205;52.032;4.314;2023-07-13T09:45:47;20.00;99.90
18160;DHT22;9205;52.032;4.314;2023-07-13T09:48:15;19.90;24.80
18160;DHT22;9205;52.032;4.314;2023-07-13T09:50:44;19.60;8.10
18160;DHT22;9205;52.032;4.314;2023-07-13T09:53:13;19.60;99.90
18160;DHT22;9205;52.032;4.314;2023-07-13T09:55:43;19.70;99.90
18160;DHT22;9205;52.032;4.314;2023-07-13T09:58:12;19.80;99.90
18160;DHT22;9205;52.032;4.314;2023-07-13T10:00:43;19.90;99.90
18160;DHT22;9205;52.032;4.314;2023-07-13T10:03:23;20.00;99.90
18160;DHT22;9205;52.032;4.314;2023-07-13T10:05:52;19.90;1.00
18160;DHT22;9205;52.032;4.314;2023-07-13T10:08:24;19.90;1.00
18160;DHT22;9205;52.032;4.314;2023-07-13T10:10:57;19.90;1.00
18160;DHT22;9205;52.032;4.314;2023-07-13T10:13:37;20.10;1.00
18160;DHT22;9205;52.032;4.314;2023-07-13T10:16:09;20.10;1.00
18160;DHT22;9205;52.032;4.314;2023-07-13T10:18:43;20.20;1.00
18160;DHT22;9205;52.032;4.314;2023-07-13T10:21:15;20.20;1.00
18160;DHT22;9205;52.032;4.314;2023-07-13T10:23:46;20.30;1.00
18160;DHT22;9205;52.032;4.314;2023-07-13T10:26:25;20.40;1.00
18160;DHT22;9205;52.032;4.314;2023-07-13T10:28:57;20.40;1.00
18160;DHT22;9205;52.032;4.314;2023-07-13T10:31:30;20.40;1.00
18160;DHT22;9205;52.032;4.314;2023-07-13T10:33:59;20.40;1.00
18160;DHT22;9205;52.032;4.314;2023-07-13T10:36:34;20.50;1.00
18160;DHT22;9205;52.032;4.314;2023-07-13T10:39:06;20.70;1.00
18160;DHT22;9205;52.032;4.314;2023-07-13T10:41:39;20.60;1.00
18160;DHT22;9205;52.032;4.314;2023-07-13T10:44:17;20.50;1.00
18160;DHT22;9205;52.032;4.314;2023-07-13T10:46:52;20.60;1.00
18160;DHT22;9205;52.032;4.314;2023-07-13T10:49:24;20.80;1.00
18160;DHT22;9205;52.032;4.314;2023-07-13T10:51:55;20.80;1.00
18160;DHT22;9205;52.032;4.314;2023-07-13T10:54:27;20.90;1.00
18160;DHT22;9205;52.032;4.314;2023-07-13T10:57:18;20.80;1.00
18160;DHT22;9205;52.032;4.314;2023-07-13T11:00:14;20.70;1.00
18160;DHT22;9205;52.032;4.314;2023-07-13T11:02:44;20.80;1.00
18160;DHT22;9205;52.032;4.314;2023-07-13T11:05:29;20.90;1.00
18160;DHT22;9205;52.032;4.314;2023-07-13T11:08:12;20.80;99.90
18160;DHT22;9205;52.032;4.314;2023-07-13T11:10:50;20.80;1.00
18160;DHT22;9205;52.032;4.314;2023-07-13T11:16:44;21.10;99.90
18160;DHT22;9205;52.032;4.314;2023-07-13T11:19:38;21.40;99.90
18160;DHT22;9205;52.032;4.314;2023-07-13T11:22:19;21.90;1.00
18160;DHT22;9205;52.032;4.314;2023-07-13T11:24:58;22.00;1.00
18160;DHT22;9205;52.032;4.314;2023-07-13T11:27:41;22.10;1.00
18160;DHT22;9205;52.032;4.314;2023-07-13T11:30:25;22.00;1.00
18160;DHT22;9205;52.032;4.314;2023-07-13T11:33:14;21.90;99.90
18160;DHT22;9205;52.032;4.314;2023-07-13T11:35:53;21.70;99.90
18160;DHT22;9205;52.032;4.314;2023-07-13T11:38:32;21.70;99.90
18160;DHT22;9205;52.032;4.314;2023-07-13T11:41:06;21.50;99.90
18160;DHT22;9205;52.032;4.314;2023-07-13T11:43:39;21.40;99.90
18160;DHT22;9205;52.032;4.314;2023-07-13T11:46:14;21.70;99.90
18160;DHT22;9205;52.032;4.314;2023-07-13T11:48:42;22.40;99.90
18160;DHT22;9205;52.032;4.314;2023-07-13T11:51:19;22.70;1.00
18160;DHT22;9205;52.032;4.314;2023-07-13T11:53:53;23.10;1.00
18160;DHT22;9205;52.032;4.314;2023-07-13T11:56:22;23.00;43.40
18160;DHT22;9205;52.032;4.314;2023-07-13T11:58:53;23.00;1.00
18160;DHT22;9205;52.032;4.314;2023-07-13T12:01:24;23.30;99.90
18160;DHT22;9205;52.032;4.314;2023-07-13T12:03:55;23.20;1.00
18160;DHT22;9205;52.032;4.314;2023-07-13T12:06:26;23.60;1.00
18160;DHT22;9205;52.032;4.314;2023-07-13T12:09:00;23.50;1.00
18160;DHT22;9205;52.032;4.314;2023-07-13T12:11:30;23.30;1.00
18160;DHT22;9205;52.032;4.314;2023-07-13T12:14:03;23.60;1.00
18160;DHT22;9205;52.032;4.314;2023-07-13T12:16:32;23.60;1.00
18160;DHT22;9205;52.032;4.314;2023-07-13T12:19:01;23.60;99.90
18160;DHT22;9205;52.032;4.314;2023-07-13T12:21:32;23.50;99.90
18160;DHT22;9205;52.032;4.314;2023-07-13T12:24:03;23.60;99.90
18160;DHT22;9205;52.032;4.314;2023-07-13T12:26:31;23.80;1.00
18160;DHT22;9205;52.032;4.314;2023-07-13T12:29:00;24.00;1.00
18160;DHT22;9205;52.032;4.314;2023-07-13T12:31:35;23.60;99.90
18160;DHT22;9205;52.032;4.314;2023-07-13T12:34:07;23.50;99.90
18160;DHT22;9205;52.032;4.314;2023-07-13T12:36:40;23.60;1.00
18160;DHT22;9205;52.032;4.314;2023-07-13T12:39:16;23.60;1.00
18160;DHT22;9205;52.032;4.314;2023-07-13T12:41:46;23.30;1.00
18160;DHT22;9205;52.032;4.314;2023-07-13T12:44:18;23.20;1.00
18160;DHT22;9205;52.032;4.314;2023-07-13T12:46:57;23.30;1.00
18160;DHT22;9205;52.032;4.314;2023-07-13T12:49:31;23.50;1.00
18160;DHT22;9205;52.032;4.314;2023-07-13T12:52:03;23.70;1.00
18160;DHT22;9205;52.032;4.314;2023-07-13T12:54:41;23.80;1.00
18160;DHT22;9205;52.032;4.314;2023-07-13T12:57:18;23.60;99.90
18160;DHT22;9205;52.032;4.314;2023-07-13T12:59:46;23.40;99.90
18160;DHT22;9205;52.032;4.314;2023-07-13T13:02:24;23.50;99.90
18160;DHT22;9205;52.032;4.314;2023-07-13T13:05:00;23.70;99.90
18160;DHT22;9205;52.032;4.314;2023-07-13T13:07:29;23.10;1.00
18160;DHT22;9205;52.032;4.314;2023-07-13T13:09:58;23.30;99.90
18160;DHT22;9205;52.032;4.314;2023-07-13T13:12:26;23.50;99.90
18160;DHT22;9205;52.032;4.314;2023-07-13T13:14:53;23.50;99.90
18160;DHT22;9205;52.032;4.314;2023-07-13T13:17:22;23.40;99.90
18160;DHT22;9205;52.032;4.314;2023-07-13T13:19:53;23.30;99.90
18160;DHT22;9205;52.032;4.314;2023-07-13T13:22:21;22.80;99.90
18160;DHT22;9205;52.032;4.314;2023-07-13T13:24:49;23.30;1.00
18160;DHT22;9205;52.032;4.314;2023-07-13T13:27:20;23.50;99.90
18160;DHT22;9205;52.032;4.314;2023-07-13T13:29:50;23.50;99.90
18160;DHT22;9205;52.032;4.314;2023-07-13T13:32:18;23.50;99.90
18160;DHT22;9205;52.032;4.314;2023-07-13T13:34:46;23.60;99.90
18160;DHT22;9205;52.032;4.314;2023-07-13T13:37:18;23.10;99.90
18160;DHT22;9205;52.032;4.314;2023-07-13T13:39:47;23.30;1.00
18160;DHT22;9205;52.032;4.314;2023-07-13T13:42:15;23.40;1.00
18160;DHT22;9205;52.032;4.314;2023-07-13T13:44:44;23.30;99.90
18160;DHT22;9205;52.032;4.314;2023-07-13T13:47:25;23.20;99.90
18160;DHT22;9205;52.032;4.314;2023-07-13T13:49:56;23.40;1.00
18160;DHT22;9205;52.032;4.314;2023-07-13T13:52:24;23.60;99.90
18160;DHT22;9205;52.032;4.314;2023-07-13T13:54:52;23.60;99.90
18160;DHT22;9205;52.032;4.314;2023-07-13T13:57:22;23.40;99.90
18160;DHT22;9205;52.032;4.314;2023-07-13T13:59:52;23.50;99.90
18160;DHT22;9205;52.032;4.314;2023-07-13T14:02:25;23.50;99.90
18160;DHT22;9205;52.032;4.314;2023-07-13T14:04:58;23.50;64.00
18160;DHT22;9205;52.032;4.314;2023-07-13T14:07:27;23.20;74.80
18160;DHT22;9205;52.032;4.314;2023-07-13T14:09:58;23.50;99.90
18160;DHT22;9205;52.032;4.314;2023-07-13T14:12:27;23.60;99.90
18160;DHT22;9205;52.032;4.314;2023-07-13T14:14:57;23.50;99.90
18160;DHT22;9205;52.032;4.314;2023-07-13T14:17:27;23.40;99.90
18160;DHT22;9205;52.032;4.314;2023-07-13T14:19:55;23.30;99.90
18160;DHT22;9205;52.032;4.314;2023-07-13T14:22:24;23.10;99.90
18160;DHT22;9205;52.032;4.314;2023-07-13T14:24:52;23.00;99.90
18160;DHT22;9205;52.032;4.314;2023-07-13T14:27:21;23.40;1.00
18160;DHT22;9205;52.032;4.314;2023-07-13T14:29:48;22.90;99.90
18160;DHT22;9205;52.032;4.314;2023-07-13T14:32:17;22.70;1.00
18160;DHT22;9205;52.032;4.314;2023-07-13T14:34:44;22.50;1.00
18160;DHT22;9205;52.032;4.314;2023-07-13T14:37:13;22.50;1.00
18160;DHT22;9205;52.032;4.314;2023-07-13T14:39:43;22.60;1.00
18160;DHT22;9205;52.032;4.314;2023-07-13T14:42:11;22.70;1.00
18160;DHT22;9205;52.032;4.314;2023-07-13T14:44:39;23.20;1.00
18160;DHT22;9205;52.032;4.314;2023-07-13T14:47:07;23.40;1.00
18160;DHT22;9205;52.032;4.314;2023-07-13T14:49:38;23.40;1.00
18160;DHT22;9205;52.032;4.314;2023-07-13T14:52:12;23.50;1.00
18160;DHT22;9205;52.032;4.314;2023-07-13T14:54:41;23.30;99.90
18160;DHT22;9205;52.032;4.314;2023-07-13T14:57:13;23.50;99.90
18160;DHT22;9205;52.032;4.314;2023-07-13T14:59:42;23.40;99.90
18160;DHT22;9205;52.032;4.314;2023-07-13T15:02:16;23.10;99.90
18160;DHT22;9205;52.032;4.314;2023-07-13T15:04:46;23.30;99.90
18160;DHT22;9205;52.032;4.314;2023-07-13T15:07:13;23.50;1.00
18160;DHT22;9205;52.032;4.314;2023-07-13T15:09:42;23.60;99.90
18160;DHT22;9205;52.032;4.314;2023-07-13T15:12:10;23.50;99.90
18160;DHT22;9205;52.032;4.314;2023-07-13T15:14:37;23.00;99.90
18160;DHT22;9205;52.032;4.314;2023-07-13T15:17:08;22.90;99.90
18160;DHT22;9205;52.032;4.314;2023-07-13T15:19:50;23.00;99.90
18160;DHT22;9205;52.032;4.314;2023-07-13T15:22:18;23.00;99.90
18160;DHT22;9205;52.032;4.314;2023-07-13T15:24:45;22.80;1.00
18160;DHT22;9205;52.032;4.314;2023-07-13T15:27:13;23.10;1.00
18160;DHT22;9205;52.032;4.314;2023-07-13T15:29:40;23.10;99.90
18160;DHT22;9205;52.032;4.314;2023-07-13T15:32:12;22.70;99.90
18160;DHT22;9205;52.032;4.314;2023-07-13T15:34:40;22.90;1.00
18160;DHT22;9205;52.032;4.314;2023-07-13T15:37:13;22.80;1.00
18160;DHT22;9205;52.032;4.314;2023-07-13T15:39:41;22.50;1.00
18160;DHT22;9205;52.032;4.314;2023-07-13T15:42:14;22.70;1.00
18160;DHT22;9205;52.032;4.314;2023-07-13T15:44:42;22.40;1.00
18160;DHT22;9205;52.032;4.314;2023-07-13T15:47:12;22.50;1.00
18160;DHT22;9205;52.032;4.314;2023-07-13T15:49:40;22.80;1.00
18160;DHT22;9205;52.032;4.314;2023-07-13T15:52:16;22.80;1.00
18160;DHT22;9205;52.032;4.314;2023-07-13T15:54:45;23.00;1.00
18160;DHT22;9205;52.032;4.314;2023-07-13T15:57:14;22.90;1.00
18160;DHT22;9205;52.032;4.314;2023-07-13T15:59:42;22.80;1.00
18160;DHT22;9205;52.032;4.314;2023-07-13T16:02:16;22.70;1.00
18160;DHT22;9205;52.032;4.314;2023-07-13T16:04:44;22.70;1.00
18160;DHT22;9205;52.032;4.314;2023-07-13T16:07:15;22.70;1.00
18160;DHT22;9205;52.032;4.314;2023-07-13T16:09:45;22.80;1.00
18160;DHT22;9205;52.032;4.314;2023-07-13T16:12:15;22.90;1.00
18160;DHT22;9205;52.032;4.314;2023-07-13T16:14:43;22.90;1.00
18160;DHT22;9205;52.032;4.314;2023-07-13T16:17:11;22.90;1.00
18160;DHT22;9205;52.032;4.314;2023-07-13T16:19:40;23.00;1.00
18160;DHT22;9205;52.032;4.314;2023-07-13T16:22:15;22.90;1.00
18160;DHT22;9205;52.032;4.314;2023-07-13T16:24:45;23.00;1.00